Time;durP1;ratioP1;P1;durP2;ratioP2;P2;SDS_P1;SDS_P2;PMS_P1;PMS_P2;Temp;Humidity;BMP_temperature;BMP_pressure;BME280_temperature;BME280_humidity;BME280_pressure;Samples;Min_cycle;Max_cycle;Signal;HPM_P1;HPM_P2
2023/04/29 00:00:31;;;;;;;4.53;4.00;;;;;;;-143.84;43.22;45098.56;5149953;27;20437;-62
2023/04/29 00:03:00;;;;;;;5.87;4.10;;;;;;;-143.84;43.28;45151.91;5149856;27;20437;-62
2023/04/29 00:05:27;;;;;;;7.37;3.90;;;;;;;-143.84;43.25;45127.13;5149959;27;20437;-62
2023/04/29 00:07:54;;;;;;;14.97;3.77;;;;;;;-143.84;43.39;45140.47;5149915;27;20473;-62
2023/04/29 00:10:21;;;;;;;4.13;3.80;;;;;;;-143.84;43.31;45142.38;5150686;27;20853;-63
2023/04/29 00:12:50;;;;;;;7.80;3.50;;;;;;;-143.84;43.14;45121.44;5153605;27;20450;-62
2023/04/29 00:15:17;;;;;;;4.80;3.67;;;;;;;-143.84;43.37;45121.44;5154056;27;20839;-62
2023/04/29 00:17:45;;;;;;;8.27;4.13;;;;;;;-143.84;43.34;45125.22;5153721;27;20500;-63
2023/04/29 00:20:12;;;;;;;4.53;4.10;;;;;;;-143.84;43.56;45121.44;5153599;27;20438;-62
2023/04/29 00:22:39;;;;;;;6.10;3.93;;;;;;;-143.84;43.60;45125.22;5153496;27;20442;-63
2023/04/29 00:25:08;;;;;;;4.73;4.27;;;;;;;-143.84;43.52;45115.72;5153710;27;20430;-62
2023/04/29 00:27:35;;;;;;;5.93;4.03;;;;;;;-143.84;43.59;45130.94;5153480;27;20545;-62
2023/04/29 00:30:04;;;;;;;3.87;3.57;;;;;;;-143.84;43.54;45138.56;5153367;27;20437;-62
2023/04/29 00:32:31;;;;;;;7.73;4.17;;;;;;;-143.84;43.63;45123.34;5153345;27;20434;-62
2023/04/29 00:34:58;;;;;;;6.50;4.13;;;;;;;-143.84;43.82;45132.84;5153425;27;20526;-63
2023/04/29 00:37:25;;;;;;;6.07;3.93;;;;;;;-143.84;43.73;45136.66;5153318;27;20494;-62
2023/04/29 00:39:53;;;;;;;7.80;4.03;;;;;;;-143.84;43.73;45113.81;5153428;27;20490;-62
2023/04/29 00:42:20;;;;;;;5.33;4.10;;;;;;;-143.84;43.88;45151.91;5153182;27;20434;-62
2023/04/29 00:44:47;;;;;;;6.03;3.93;;;;;;;-143.84;43.99;45117.63;5153242;27;20486;-62
2023/04/29 00:47:16;;;;;;;8.30;3.90;;;;;;;-143.84;43.94;45125.22;5153309;27;20477;-62
2023/04/29 00:49:43;;;;;;;7.03;4.50;;;;;;;-143.84;44.19;45129.03;5153073;27;20446;-62
2023/04/29 00:52:11;;;;;;;5.07;4.07;;;;;;;-143.84;44.10;45150.00;5152878;27;21270;-63
2023/04/29 00:54:39;;;;;;;7.90;4.00;;;;;;;-143.84;44.25;45132.84;5152571;27;20481;-62
2023/04/29 00:57:06;;;;;;;6.53;4.30;;;;;;;-143.84;44.38;45136.66;5153053;27;20437;-62
2023/04/29 00:59:34;;;;;;;6.47;4.60;;;;;;;-143.84;44.60;45125.22;5152896;27;20430;-62
2023/04/29 01:02:02;;;;;;;6.33;4.43;;;;;;;-143.84;44.44;45123.34;5152908;27;20494;-62
2023/04/29 01:04:31;;;;;;;7.40;5.03;;;;;;;-143.84;44.38;45129.03;5153034;27;20533;-62
2023/04/29 01:07:09;;;;;;;5.87;3.80;;;;;;;-143.84;44.44;45123.34;5152437;27;20522;-62
2023/04/29 01:09:50;;;;;;;7.33;3.80;;;;;;;-143.84;44.73;45146.19;5152750;27;20469;-62
2023/04/29 01:12:24;;;;;;;4.60;4.20;;;;;;;-143.84;44.93;45150.00;5152853;27;20433;-62
2023/04/29 01:15:01;;;;;;;8.20;4.30;;;;;;;-143.84;44.96;45140.47;5152519;27;20507;-62
2023/04/29 01:17:37;;;;;;;7.30;4.93;;;;;;;-143.84;45.37;45127.13;5152560;27;20433;-60
2023/04/29 01:20:09;;;;;;;4.87;4.17;;;;;;;-143.84;45.19;45129.03;5152594;27;20460;-62
2023/04/29 01:22:38;;;;;;;6.77;4.67;;;;;;;-143.84;45.42;45130.94;5152366;27;20433;-60
2023/04/29 01:25:07;;;;;;;5.33;4.03;;;;;;;-143.84;45.42;45134.75;5152526;27;20437;-60
2023/04/29 01:27:39;;;;;;;4.50;4.10;;;;;;;-143.84;45.85;45142.38;5152155;27;20473;-60
2023/04/29 01:30:15;;;;;;;4.07;3.77;;;;;;;-143.84;45.77;45153.81;5152279;27;20486;-60
2023/04/29 01:32:52;;;;;;;4.50;4.10;;;;;;;-143.84;46.14;45146.19;5152252;27;20844;-60
2023/04/29 01:35:31;;;;;;;9.70;4.00;;;;;;;-143.84;45.98;45144.28;5152179;27;20437;-60
2023/04/29 01:38:11;;;;;;;8.43;4.07;;;;;;;-143.84;45.95;45148.09;5152147;27;20440;-63
2023/04/29 01:40:48;;;;;;;7.10;5.70;;;;;;;-143.84;46.65;45129.03;5152155;27;20760;-60
2023/04/29 01:43:17;;;;;;;6.90;4.50;;;;;;;-143.84;46.43;45132.84;5151919;27;20442;-60
2023/04/29 01:45:44;;;;;;;7.60;4.63;;;;;;;-143.84;46.60;45138.56;5151973;27;20456;-60
2023/04/29 01:48:13;;;;;;;6.40;4.30;;;;;;;-143.84;46.84;45163.31;5151684;27;20484;-60
2023/04/29 01:50:40;;;;;;;9.33;4.47;;;;;;;-143.84;46.96;45144.28;5151986;27;20912;-60
2023/04/29 01:53:07;;;;;;;7.63;4.20;;;;;;;-143.84;47.46;45146.19;5151650;27;20485;-60
2023/04/29 01:55:34;;;;;;;7.40;4.47;;;;;;;-143.84;47.34;45138.56;5151802;27;20445;-60
2023/04/29 01:58:02;;;;;;;15.00;4.70;;;;;;;-143.84;47.93;45140.47;5151853;27;20466;-60
2023/04/29 02:00:29;;;;;;;10.30;4.17;;;;;;;-143.84;47.71;45144.28;5151784;27;20453;-60
2023/04/29 02:02:56;;;;;;;6.73;4.30;;;;;;;-143.84;47.86;45129.03;5152024;27;20438;-60
2023/04/29 02:05:24;;;;;;;4.80;4.40;;;;;;;-143.84;47.65;45155.69;5151168;27;20510;-60
2023/04/29 02:07:51;;;;;;;7.80;4.93;;;;;;;-143.84;47.66;45132.84;5150523;27;20537;-60
2023/04/29 02:10:18;;;;;;;7.53;4.53;;;;;;;-143.84;47.82;45151.91;5150922;27;21376;-60
2023/04/29 02:12:45;;;;;;;6.63;4.37;;;;;;;-143.84;47.78;45146.19;5151303;27;20518;-60
2023/04/29 02:15:14;;;;;;;4.77;4.03;;;;;;;-143.84;47.86;45129.03;5150829;27;20437;-60
2023/04/29 02:17:41;;;;;;;4.83;4.33;;;;;;;-143.84;48.14;45127.13;5151023;27;20477;-60
2023/04/29 02:20:09;;;;;;;6.07;4.10;;;;;;;-143.84;47.96;45119.53;5151078;27;20441;-59
2023/04/29 02:22:36;;;;;;;6.60;4.50;;;;;;;-143.84;48.17;45150.00;5151313;27;20434;-59
2023/04/29 02:25:04;;;;;;;5.07;4.67;;;;;;;-143.84;48.32;45121.44;5151175;27;20430;-60
2023/04/29 02:27:31;;;;;;;7.97;4.93;;;;;;;-143.84;48.37;45159.50;5151115;27;20510;-60
2023/04/29 02:29:58;;;;;;;4.77;4.37;;;;;;;-143.84;48.29;45125.22;5151487;27;20433;-60
2023/04/29 02:32:26;;;;;;;5.63;4.40;;;;;;;-143.84;48.54;45127.13;5151319;27;20467;-60
2023/04/29 02:34:53;;;;;;;7.93;4.60;;;;;;;-143.84;48.07;45130.94;5150546;27;20437;-60
2023/04/29 02:37:20;;;;;;;4.60;3.83;;;;;;;-143.84;47.80;45136.66;5150804;27;20494;-60
2023/04/29 02:39:48;;;;;;;9.63;4.70;;;;;;;-143.84;48.08;45125.22;5130547;27;20439;-60
2023/04/29 02:42:15;;;;;;;5.17;4.70;;;;;;;-143.84;48.29;45140.47;5130102;27;20446;-60
2023/04/29 02:44:42;;;;;;;12.50;4.20;;;;;;;-143.84;48.34;45134.75;5130415;27;20435;-60
2023/04/29 02:47:09;;;;;;;8.07;4.50;;;;;;;-143.84;48.47;45132.84;5129979;27;20473;-59
2023/04/29 02:49:38;;;;;;;7.90;4.30;;;;;;;-143.84;47.90;45146.19;5129895;27;20426;-60
2023/04/29 02:52:05;;;;;;;8.23;4.40;;;;;;;-143.84;48.28;45153.81;5130074;27;21251;-60
2023/04/29 02:54:32;;;;;;;4.63;4.20;;;;;;;-143.84;48.67;45132.84;5129758;27;20471;-60
2023/04/29 02:56:59;;;;;;;6.70;4.23;;;;;;;-143.84;47.75;45148.09;5130073;27;20842;-59
2023/04/29 02:59:26;;;;;;;4.43;4.00;;;;;;;-143.84;48.12;45138.56;5129823;27;20491;-60
2023/04/29 03:01:54;;;;;;;7.43;3.93;;;;;;;-143.84;48.48;45151.91;5130080;27;20423;-60
2023/04/29 03:04:21;;;;;;;7.97;5.07;;;;;;;-143.84;48.49;45117.63;5129754;27;20442;-60
2023/04/29 03:06:50;;;;;;;5.20;4.63;;;;;;;-143.84;48.21;45163.31;5129810;28;20524;-59
2023/04/29 03:09:17;;;;;;;8.00;4.40;;;;;;;-143.84;48.48;45140.47;5129732;28;20845;-59
2023/04/29 03:11:44;;;;;;;5.50;4.67;;;;;;;-143.84;48.88;45150.00;5129719;28;20446;-59
2023/04/29 03:14:11;;;;;;;6.00;4.50;;;;;;;-143.84;48.74;45184.25;5129882;27;20500;-60
2023/04/29 03:16:38;;;;;;;6.23;4.50;;;;;;;-143.84;48.53;45125.22;5129559;28;21236;-59
2023/04/29 03:19:05;;;;;;;9.90;4.90;;;;;;;-143.84;49.39;45136.66;5129416;27;20471;-60
2023/04/29 03:21:32;;;;;;;5.87;4.23;;;;;;;-143.84;48.73;45163.31;5129623;27;20431;-60
2023/04/29 03:24:01;;;;;;;4.90;4.40;;;;;;;-143.84;48.68;45142.38;5129677;28;20985;-59
2023/04/29 03:26:28;;;;;;;8.50;4.90;;;;;;;-143.84;49.36;45121.44;5129994;27;20442;-60
2023/04/29 03:28:55;;;;;;;8.30;5.30;;;;;;;-143.84;49.12;45140.47;5129461;27;20474;-60
2023/04/29 03:31:23;;;;;;;8.57;4.50;;;;;;;-143.84;48.71;45136.66;5129579;27;20431;-60
2023/04/29 03:33:52;;;;;;;7.40;4.50;;;;;;;-143.84;49.03;45127.13;5129800;28;21404;-59
2023/04/29 03:36:19;;;;;;;7.20;4.50;;;;;;;-143.84;48.75;45144.28;5129661;28;20446;-60
2023/04/29 03:38:46;;;;;;;4.73;4.33;;;;;;;-143.84;48.86;45134.75;5129979;28;20794;-60
2023/04/29 03:41:15;;;;;;;7.73;3.97;;;;;;;-143.84;49.00;45136.66;5129070;27;20445;-60
2023/04/29 03:43:43;;;;;;;7.73;4.57;;;;;;;-143.84;48.98;45146.19;5129420;27;20507;-60
2023/04/29 03:46:10;;;;;;;7.40;4.77;;;;;;;-143.84;48.97;45150.00;5131378;27;20448;-60
2023/04/29 03:48:37;;;;;;;10.23;4.87;;;;;;;-143.84;49.02;45151.91;5133506;27;20470;-62
2023/04/29 03:51:05;;;;;;;26.13;5.03;;;;;;;-143.84;49.11;45151.91;5133805;27;20486;-60
2023/04/29 03:53:32;;;;;;;8.60;5.47;;;;;;;-143.84;48.80;45111.91;5133394;27;20474;-60
2023/04/29 03:55:59;;;;;;;12.10;4.60;;;;;;;-143.84;46.79;45153.81;5133646;27;21282;-60
2023/04/29 03:58:28;;;;;;;8.60;4.90;;;;;;;-143.84;45.04;45115.72;5133639;27;20442;-59
2023/04/29 04:00:55;;;;;;;7.57;4.87;;;;;;;-143.84;44.43;45153.81;5133405;27;20438;-60
2023/04/29 04:03:24;;;;;;;8.73;4.60;;;;;;;-143.84;42.54;45096.66;5133180;27;20491;-60
2023/04/29 04:05:51;;;;;;;10.23;4.90;;;;;;;-143.84;42.42;45087.16;5133088;27;20791;-62
2023/04/29 04:08:18;;;;;;;6.13;4.77;;;;;;;-143.84;41.14;45110.00;5132850;27;20546;-62
2023/04/29 04:10:45;;;;;;;4.77;4.20;;;;;;;-143.84;40.82;45132.84;5133382;27;20841;-62
2023/04/29 04:13:13;;;;;;;9.10;5.30;;;;;;;-143.84;40.10;45089.06;5132778;27;20450;-62
2023/04/29 04:15:41;;;;;;;8.23;4.70;;;;;;;-143.84;39.90;45098.56;5146257;27;20980;-62
2023/04/29 04:18:09;;;;;;;27.70;5.03;;;;;;;-143.84;39.43;45119.53;5153547;27;20448;-62
2023/04/29 04:20:37;;;;;;;7.33;4.10;;;;;;;-143.84;38.92;45117.63;5153551;27;21081;-62
2023/04/29 04:23:04;;;;;;;7.53;5.00;;;;;;;-143.84;39.11;45087.16;5153673;27;20576;-63
2023/04/29 04:25:31;;;;;;;6.63;4.53;;;;;;;-143.84;38.81;45121.44;5153706;27;20946;-63
2023/04/29 04:27:58;;;;;;;4.53;4.10;;;;;;;-143.84;38.68;45087.16;5153167;27;20534;-63
2023/04/29 04:30:25;;;;;;;8.93;5.17;;;;;;;-143.84;38.69;45102.38;5153010;27;20497;-63
2023/04/29 04:32:54;;;;;;;4.73;4.33;;;;;;;-143.84;38.86;45094.78;5153483;27;20483;-62
2023/04/29 04:35:21;;;;;;;5.73;4.67;;;;;;;-143.84;38.57;45079.53;5153272;27;20441;-60
2023/04/29 04:37:51;;;;;;;5.90;4.40;;;;;;;-143.84;38.17;45090.97;5153262;27;20433;-60
2023/04/29 04:40:18;;;;;;;5.40;4.10;;;;;;;-143.84;38.45;45119.53;5153266;27;20441;-62
2023/04/29 04:42:45;;;;;;;4.63;4.20;;;;;;;-143.84;38.39;45113.81;5153394;27;20429;-62
2023/04/29 04:45:13;;;;;;;6.50;5.00;;;;;;;-143.84;38.18;45102.38;5152941;27;20432;-60
2023/04/29 04:47:41;;;;;;;5.47;4.50;;;;;;;-143.84;38.26;45113.81;5153225;27;20476;-60
2023/04/29 04:50:10;;;;;;;6.50;4.67;;;;;;;-143.84;38.22;45106.19;5153009;27;20439;-60
2023/04/29 04:52:37;;;;;;;9.10;4.63;;;;;;;-143.84;38.15;45115.72;5153012;27;20467;-60
2023/04/29 04:55:04;;;;;;;8.77;4.23;;;;;;;-143.84;38.12;45094.78;5152744;27;20538;-60
2023/04/29 04:57:32;;;;;;;4.90;4.50;;;;;;;-143.84;37.78;45098.56;5152616;27;20434;-60
2023/04/29 05:00:00;;;;;;;6.50;4.60;;;;;;;-143.84;37.62;45077.63;5152737;27;20442;-60
2023/04/29 05:02:27;;;;;;;7.23;3.80;;;;;;;-143.84;37.08;45094.78;5153022;27;20440;-60
2023/04/29 05:04:54;;;;;;;8.07;4.67;;;;;;;-143.84;37.44;45077.63;5153045;27;20437;-60
2023/04/29 05:07:23;;;;;;;4.90;4.03;;;;;;;-143.84;37.17;45085.25;5152872;27;20878;-60
2023/04/29 05:09:50;;;;;;;5.90;4.20;;;;;;;-143.84;36.61;45066.22;5152973;27;20436;-60
2023/04/29 05:12:17;;;;;;;9.23;4.97;;;;;;;-143.84;36.81;45089.06;5152898;27;20429;-60
2023/04/29 05:14:44;;;;;;;5.87;3.60;;;;;;;-143.84;36.30;45090.97;5152708;27;20514;-60
2023/04/29 05:17:11;;;;;;;4.33;3.77;;;;;;;-143.84;35.90;45098.56;5153249;27;20477;-60
2023/04/29 05:19:39;;;;;;;8.83;4.20;;;;;;;-143.84;35.98;45064.31;5152634;27;20499;-60
2023/04/29 05:22:06;;;;;;;8.83;4.53;;;;;;;-143.84;35.76;45077.63;5152395;27;20441;-60
2023/04/29 05:24:34;;;;;;;3.57;3.27;;;;;;;-143.84;35.16;45045.25;5152412;27;20426;-60
2023/04/29 05:27:03;;;;;;;7.33;4.07;;;;;;;-143.84;35.19;45054.78;5152646;27;20444;-60
2023/04/29 05:29:31;;;;;;;10.47;4.40;;;;;;;-143.84;34.98;45056.69;5152668;27;20478;-60
2023/04/29 05:31:58;;;;;;;7.83;4.57;;;;;;;-143.84;34.94;45052.88;5152361;27;20438;-60
2023/04/29 05:34:25;;;;;;;3.80;3.50;;;;;;;-143.84;34.88;45068.13;5152190;27;20878;-60
2023/04/29 05:36:52;;;;;;;5.03;3.57;;;;;;;-143.84;34.88;45056.69;5144029;27;20434;-60
2023/04/29 05:39:19;;;;;;;7.53;3.73;;;;;;;-143.84;34.30;45056.69;5131396;27;20442;-60
2023/04/29 05:41:47;;;;;;;3.37;3.10;;;;;;;-143.84;34.60;45068.13;5131566;27;20438;-60
2023/04/29 05:44:14;;;;;;;6.23;3.00;;;;;;;-143.84;34.07;45081.44;5131541;27;20499;-60
2023/04/29 05:46:42;;;;;;;6.53;3.80;;;;;;;-143.84;34.39;45052.88;5131159;27;20439;-60
2023/04/29 05:49:09;;;;;;;6.83;3.87;;;;;;;-143.84;33.90;45060.50;5131076;27;20483;-60
2023/04/29 05:51:36;;;;;;;6.03;3.40;;;;;;;-143.84;33.89;45056.69;5130766;27;20426;-60
2023/04/29 05:54:03;;;;;;;6.57;3.23;;;;;;;-143.84;33.25;45035.75;5130821;27;20563;-60
2023/04/29 05:56:31;;;;;;;3.70;3.17;;;;;;;-143.84;33.18;45077.63;5130945;27;20442;-60
2023/04/29 05:59:00;;;;;;;4.43;3.27;;;;;;;-143.84;32.63;45060.50;5130958;27;20435;-60
2023/04/29 06:01:27;;;;;;;4.60;2.93;;;;;;;-143.84;32.57;45041.44;5130827;27;20944;-60
2023/04/29 06:03:54;;;;;;;5.77;3.50;;;;;;;-143.84;32.11;45028.13;5131134;27;20908;-60
2023/04/29 06:06:21;;;;;;;9.30;3.40;;;;;;;-143.84;32.64;45052.88;5130886;27;20826;-60
2023/04/29 06:08:48;;;;;;;4.90;3.03;;;;;;;-143.84;32.56;45050.97;5130212;27;20589;-60
2023/04/29 06:11:15;;;;;;;11.20;3.60;;;;;;;-143.84;31.85;45056.69;5130531;27;20499;-60
2023/04/29 06:13:42;;;;;;;8.60;3.43;;;;;;;-143.84;31.51;45064.31;5130408;27;20454;-60
2023/04/29 06:16:12;;;;;;;10.47;3.23;;;;;;;-143.84;31.66;45054.78;5130320;27;20867;-60
2023/04/29 06:18:39;;;;;;;3.27;2.70;;;;;;;-143.84;31.72;45041.44;5130559;27;20510;-60
2023/04/29 06:21:06;;;;;;;3.40;3.10;;;;;;;-143.84;31.88;45043.34;5130738;27;20439;-60
2023/04/29 06:23:33;;;;;;;7.23;3.43;;;;;;;-143.84;31.30;45047.16;5130680;27;20430;-60
2023/04/29 06:26:00;;;;;;;6.00;3.30;;;;;;;-143.84;31.19;45035.75;5129365;27;20438;-60
2023/04/29 06:28:28;;;;;;;5.77;2.90;;;;;;;-143.84;30.84;45052.88;5129225;27;20478;-60
2023/04/29 06:30:55;;;;;;;5.63;2.73;;;;;;;-143.84;30.78;45018.59;5129915;27;20442;-60
2023/04/29 06:33:24;;;;;;;7.80;3.20;;;;;;;-143.84;31.38;45049.06;5129637;27;20936;-60
2023/04/29 06:35:51;;;;;;;4.17;2.77;;;;;;;-143.84;31.03;45010.97;5129649;27;20502;-60
2023/04/29 06:38:18;;;;;;;4.67;2.83;;;;;;;-143.84;30.84;45030.03;5130287;27;20435;-60
2023/04/29 06:40:45;;;;;;;9.67;3.17;;;;;;;-143.84;30.41;45049.06;5129885;27;20848;-61
2023/04/29 06:43:12;;;;;;;8.00;2.87;;;;;;;-143.84;30.61;45045.25;5130006;27;21189;-60
2023/04/29 06:45:40;;;;;;;10.00;3.20;;;;;;;-143.84;30.15;45049.06;5130114;27;20470;-60
2023/04/29 06:48:07;;;;;;;7.70;2.93;;;;;;;-143.84;30.27;45060.50;5130016;27;20435;-59
2023/04/29 06:50:35;;;;;;;4.63;2.63;;;;;;;-143.84;30.18;45018.59;5130517;27;20439;-59
2023/04/29 06:53:02;;;;;;;3.57;2.90;;;;;;;-143.84;30.46;45050.97;5129968;27;20828;-60
2023/04/29 06:55:30;;;;;;;6.37;2.57;;;;;;;-143.84;29.79;45018.59;5130088;27;20842;-59
2023/04/29 06:57:57;;;;;;;7.13;2.33;;;;;;;-143.84;30.01;45026.22;5129874;27;20445;-60
2023/04/29 07:00:24;;;;;;;2.90;2.70;;;;;;;-143.84;29.58;45035.75;5129882;27;20866;-60
2023/04/29 07:02:51;;;;;;;6.87;3.20;;;;;;;-143.84;30.59;45018.59;5129917;27;20435;-60
2023/04/29 07:05:18;;;;;;;4.70;2.83;;;;;;;-143.84;30.16;45020.50;5130131;27;20439;-60
2023/04/29 07:07:47;;;;;;;3.93;3.30;;;;;;;-143.84;30.04;45062.41;5129758;28;20951;-61
2023/04/29 07:10:14;;;;;;;9.43;2.93;;;;;;;-143.84;30.41;45068.13;5129917;27;21203;-60
2023/04/29 07:12:41;;;;;;;6.23;3.90;;;;;;;-143.84;30.24;45037.66;5130035;27;21327;-60
2023/04/29 07:15:09;;;;;;;6.70;3.00;;;;;;;-143.84;30.61;45035.75;5129888;28;20435;-60
2023/04/29 07:17:36;;;;;;;8.50;3.47;;;;;;;-143.84;31.32;45058.59;5129911;27;20438;-61
2023/04/29 07:20:04;;;;;;;8.33;3.60;;;;;;;-143.84;30.89;45035.75;5131794;27;20438;-60
2023/04/29 07:22:31;;;;;;;6.07;3.83;;;;;;;-143.84;30.87;45022.41;5134065;27;20498;-60
2023/04/29 07:25:00;;;;;;;3.57;3.20;;;;;;;-143.84;30.81;45037.66;5133797;27;20565;-63
2023/04/29 07:27:28;;;;;;;6.40;2.77;;;;;;;-143.84;30.92;45039.53;5133929;27;21004;-60
2023/04/29 07:29:55;;;;;;;3.87;3.10;;;;;;;-143.84;31.33;45039.53;5133731;27;20480;-60
2023/04/29 07:32:22;;;;;;;8.40;2.90;;;;;;;-143.84;31.52;45031.94;5133696;27;20473;-60
2023/04/29 07:34:51;;;;;;;8.43;2.80;;;;;;;-143.84;31.08;45045.25;5133674;27;20521;-60
2023/04/29 07:37:18;;;;;;;3.23;2.60;;;;;;;-143.84;30.75;45037.66;5133362;27;20441;-60
2023/04/29 07:39:46;;;;;;;11.00;3.30;;;;;;;-143.84;30.84;45028.13;5133183;27;20939;-60
2023/04/29 07:42:14;;;;;;;8.73;3.20;;;;;;;-143.84;30.83;45031.94;5133528;27;20491;-60
2023/04/29 07:44:41;;;;;;;2.57;2.30;;;;;;;-143.84;30.85;45041.44;5133668;27;20806;-60
2023/04/29 07:47:08;;;;;;;4.00;3.30;;;;;;;-143.84;30.82;45024.31;5133856;27;20894;-60
2023/04/29 07:49:35;;;;;;;3.47;2.60;;;;;;;-143.84;31.30;45028.13;5133378;27;20510;-59
2023/04/29 07:52:03;;;;;;;6.17;3.07;;;;;;;-143.84;31.95;45041.44;5133480;27;20431;-60
2023/04/29 07:54:30;;;;;;;6.43;3.10;;;;;;;-143.84;31.52;45033.84;5133009;27;20485;-60
2023/04/29 07:56:59;;;;;;;2.93;2.60;;;;;;;-143.84;31.56;45028.13;5133405;27;20434;-60
2023/04/29 07:59:27;;;;;;;9.93;2.90;;;;;;;-143.84;31.11;45016.69;5133309;27;20449;-60
2023/04/29 08:01:54;;;;;;;4.10;3.70;;;;;;;-143.84;30.83;45033.84;5133622;27;20466;-60
2023/04/29 08:04:22;;;;;;;4.23;2.60;;;;;;;-143.84;31.41;45026.22;5133279;27;20813;-60
2023/04/29 08:06:49;;;;;;;5.93;2.70;;;;;;;-143.84;30.67;45031.94;5133099;27;20434;-61
2023/04/29 08:09:16;;;;;;;3.37;2.87;;;;;;;-143.84;30.58;45016.69;5132851;27;20483;-60
2023/04/29 08:11:44;;;;;;;6.27;2.97;;;;;;;-143.84;30.21;45030.03;5133354;27;20470;-60
2023/04/29 08:14:11;;;;;;;4.50;2.93;;;;;;;-143.84;29.76;45007.19;5132980;27;20451;-59
2023/04/29 08:16:40;;;;;;;3.73;3.03;;;;;;;-143.84;30.66;44999.56;5132865;27;20431;-60
2023/04/29 08:19:07;;;;;;;9.30;2.77;;;;;;;-143.84;31.03;45016.69;5133021;27;20443;-60
2023/04/29 08:21:34;;;;;;;6.60;2.83;;;;;;;-143.84;30.56;45028.13;5132739;27;20434;-60
2023/04/29 08:24:01;;;;;;;10.20;2.67;;;;;;;-143.84;30.58;45020.50;5132792;27;20443;-60
2023/04/29 08:26:29;;;;;;;8.43;3.03;;;;;;;-143.84;30.27;45041.44;5132824;27;20982;-60
2023/04/29 08:28:56;;;;;;;3.87;2.80;;;;;;;-143.84;30.58;45043.34;5132545;27;20478;-60
2023/04/29 08:31:23;;;;;;;10.13;3.47;;;;;;;-143.84;30.85;45022.41;5131942;27;20435;-60
2023/04/29 08:33:51;;;;;;;9.70;2.90;;;;;;;-143.84;31.06;45052.88;5132660;27;20434;-60
2023/04/29 08:36:19;;;;;;;9.33;3.50;;;;;;;-143.84;32.06;45026.22;5132370;27;20454;-60
2023/04/29 08:38:47;;;;;;;8.03;2.93;;;;;;;-143.84;32.12;45031.94;5132641;27;20499;-60
2023/04/29 08:41:15;;;;;;;11.00;3.33;;;;;;;-143.84;31.29;45012.88;5132926;27;21293;-60
2023/04/29 08:43:42;;;;;;;3.93;2.60;;;;;;;-143.84;31.49;45033.84;5132736;27;20476;-60
2023/04/29 08:46:10;;;;;;;3.10;2.77;;;;;;;-143.84;31.26;45035.75;5132461;27;20466;-59
2023/04/29 08:48:39;;;;;;;5.07;2.97;;;;;;;-143.84;31.69;45031.94;5132252;27;20431;-60
2023/04/29 08:51:08;;;;;;;5.60;2.90;;;;;;;-143.84;31.03;45033.84;5132221;27;20814;-59
2023/04/29 08:53:36;;;;;;;6.97;2.80;;;;;;;-143.84;30.92;45018.59;5132155;27;20486;-59
2023/04/29 08:56:09;;;;;;;6.00;3.07;;;;;;;-143.84;31.26;45014.78;5132221;27;20457;-60
2023/04/29 08:58:39;;;;;;;5.50;3.50;;;;;;;-143.84;30.20;45033.84;5132106;27;20507;-60
2023/04/29 09:01:08;;;;;;;5.17;2.77;;;;;;;-143.84;31.05;45020.50;5132111;27;20787;-62
2023/04/29 09:03:43;;;;;;;4.63;3.30;;;;;;;-143.84;30.87;45005.28;5132026;27;20993;-60
2023/04/29 09:06:12;;;;;;;8.90;2.70;;;;;;;-143.84;31.96;45039.53;5132088;27;20463;-62
2023/04/29 09:08:43;;;;;;;7.63;2.77;;;;;;;-143.84;30.95;45012.88;5132001;27;20464;-62
2023/04/29 09:11:12;;;;;;;4.57;2.03;;;;;;;-143.84;30.32;45028.13;5131968;27;20520;-60
2023/04/29 09:13:39;;;;;;;5.50;2.00;;;;;;;-143.84;31.21;45016.69;5131753;27;20446;-62
2023/04/29 09:16:11;;;;;;;3.00;2.80;;;;;;;-143.84;30.14;45041.44;5132025;27;20518;-60
2023/04/29 09:18:49;;;;;;;9.43;2.80;;;;;;;-143.84;29.71;45007.19;5131757;27;20436;-60
2023/04/29 09:21:19;;;;;;;9.00;3.10;;;;;;;-143.84;30.69;45024.31;5131558;27;20451;-60
2023/04/29 09:23:48;;;;;;;7.23;2.87;;;;;;;-143.84;29.58;45022.41;5131860;27;20443;-60
2023/04/29 09:26:15;;;;;;;9.67;3.23;;;;;;;-143.84;30.06;45022.41;5131541;27;20438;-60
2023/04/29 09:28:44;;;;;;;17.70;3.00;;;;;;;-143.84;30.44;45018.59;5131834;27;20447;-60
2023/04/29 09:31:12;;;;;;;2.63;2.40;;;;;;;-143.84;30.34;45005.28;5131544;27;20434;-60
2023/04/29 09:33:53;;;;;;;7.13;2.80;;;;;;;-143.84;30.81;45050.97;5131365;27;21081;-61
2023/04/29 09:36:43;;;;;;;7.23;2.70;;;;;;;-143.84;30.52;45010.97;5131364;27;20779;-60
2023/04/29 09:39:12;;;;;;;4.67;2.37;;;;;;;-143.84;30.44;45045.25;5131296;27;20459;-59
2023/04/29 09:41:57;;;;;;;3.53;2.63;;;;;;;-143.84;30.49;45041.44;5131335;27;20438;-60
2023/04/29 09:44:26;;;;;;;5.80;2.87;;;;;;;-143.84;31.31;45045.25;5130470;27;20427;-62
2023/04/29 09:46:57;;;;;;;5.30;3.03;;;;;;;-143.84;31.59;45024.31;5131141;27;20434;-60
2023/04/29 09:49:27;;;;;;;6.83;2.73;;;;;;;-143.84;30.86;45041.44;5130844;27;20477;-60
2023/04/29 09:51:58;;;;;;;3.60;2.73;;;;;;;-143.84;31.46;45041.44;5131050;27;20437;-60
2023/04/29 09:54:27;;;;;;;4.00;2.90;;;;;;;-143.84;30.82;45020.50;5130968;27;20478;-59
2023/04/29 09:56:55;;;;;;;3.70;2.80;;;;;;;-143.84;30.10;45018.59;5131043;27;21235;-60
2023/04/29 09:59:23;;;;;;;4.20;2.40;;;;;;;-143.84;30.63;45035.75;5131181;27;20441;-59
2023/04/29 10:01:52;;;;;;;5.77;2.90;;;;;;;-143.84;31.72;45043.34;5130829;27;20426;-60
2023/04/29 10:04:20;;;;;;;11.70;3.47;;;;;;;-143.84;30.83;45024.31;5130621;27;20442;-60
2023/04/29 10:06:50;;;;;;;3.33;2.63;;;;;;;-143.84;30.72;45041.44;5130948;27;20455;-60
2023/04/29 10:09:20;;;;;;;2.67;2.47;;;;;;;-143.84;30.14;45043.34;5130535;27;21086;-61
2023/04/29 10:11:49;;;;;;;4.57;2.70;;;;;;;-143.84;31.21;45031.94;5130702;27;20447;-62
2023/04/29 10:14:17;;;;;;;3.53;2.83;;;;;;;-143.84;30.87;45033.84;5130668;27;20452;-60
2023/04/29 10:16:47;;;;;;;3.93;3.00;;;;;;;-143.84;31.32;45049.06;5130681;27;20491;-60
2023/04/29 10:19:25;;;;;;;5.03;2.50;;;;;;;-143.84;31.55;45030.03;5130727;27;20551;-60
2023/04/29 10:21:54;;;;;;;3.90;2.90;;;;;;;-143.84;31.27;45037.66;5130502;27;20442;-59
2023/04/29 10:24:25;;;;;;;3.20;2.90;;;;;;;-143.84;30.51;45035.75;5130557;27;21165;-60
2023/04/29 10:26:57;;;;;;;3.07;2.77;;;;;;;-143.84;31.26;45030.03;5130345;27;20446;-60
2023/04/29 10:29:28;;;;;;;8.57;3.30;;;;;;;-143.84;31.12;45047.16;5130506;27;20478;-59
2023/04/29 10:31:57;;;;;;;3.57;3.00;;;;;;;-143.84;31.32;45047.16;5130247;27;20438;-61
2023/04/29 10:34:25;;;;;;;9.17;2.87;;;;;;;-143.84;32.75;45039.53;5130361;27;20472;-59
2023/04/29 10:36:52;;;;;;;8.40;2.97;;;;;;;-143.84;31.09;45052.88;5129843;27;20495;-59
2023/04/29 10:39:31;;;;;;;3.83;3.20;;;;;;;-143.84;31.75;45030.03;5129098;27;20883;-60
2023/04/29 10:41:59;;;;;;;10.80;2.90;;;;;;;-143.84;31.58;45005.28;5129849;27;20450;-62
2023/04/29 10:44:26;;;;;;;3.83;2.70;;;;;;;-143.84;31.58;45033.84;5129640;27;20431;-60
2023/04/29 10:47:20;;;;;;;4.23;2.60;;;;;;;-143.84;31.47;45028.13;5129397;27;20463;-60
2023/04/29 10:50:05;;;;;;;4.17;2.60;;;;;;;-143.84;31.49;45037.66;5129954;27;20482;-60
2023/04/29 10:52:52;;;;;;;6.43;3.13;;;;;;;-143.84;31.61;45050.97;5130240;27;20442;-60
2023/04/29 10:55:20;;;;;;;5.37;3.00;;;;;;;-143.84;30.70;45022.41;5129546;27;20483;-60
2023/04/29 10:57:48;;;;;;;7.70;2.60;;;;;;;-143.84;30.67;45035.75;5129940;27;20511;-60
2023/04/29 11:00:23;;;;;;;3.10;2.90;;;;;;;-143.84;31.41;45031.94;5129932;27;20526;-60
2023/04/29 11:02:50;;;;;;;4.90;2.70;;;;;;;-143.84;32.07;45028.13;5130215;27;20442;-61
2023/04/29 11:05:30;;;;;;;8.20;2.90;;;;;;;-143.84;31.12;45018.59;5129980;27;20502;-60
2023/04/29 11:08:11;;;;;;;16.27;2.73;;;;;;;-143.84;31.78;45010.97;5129913;27;21007;-60
2023/04/29 11:10:43;;;;;;;10.67;2.80;;;;;;;-143.84;30.67;45007.19;5129758;27;20478;-61
2023/04/29 11:13:28;;;;;;;4.40;3.20;;;;;;;-143.84;31.95;45022.41;5129867;28;20450;-62
2023/04/29 11:16:04;;;;;;;4.47;2.97;;;;;;;-143.84;31.66;45049.06;5129897;28;20439;-62
2023/04/29 11:18:32;;;;;;;7.30;2.73;;;;;;;-143.84;31.22;45033.84;5129979;27;20434;-60
2023/04/29 11:21:14;;;;;;;3.73;2.80;;;;;;;-143.84;30.36;45014.78;5129870;27;20469;-62
2023/04/29 11:23:44;;;;;;;11.87;3.00;;;;;;;-143.84;30.97;45026.22;5129495;28;20440;-62